createdAt,value
2022-09-27T00:01:24.915Z,3.57
2022-09-27T00:03:58.699Z,3.80
2022-09-27T00:06:27.810Z,3.37
2022-09-27T00:08:55.355Z,3.20
2022-09-27T00:11:28.739Z,3.50
2022-09-27T00:13:56.599Z,3.00
2022-09-27T00:16:24.946Z,3.37
2022-09-27T00:18:52.101Z,3.20
2022-09-27T00:21:19.228Z,3.27
2022-09-27T00:23:46.380Z,3.07
2022-09-27T00:26:14.180Z,3.10
2022-09-27T00:28:41.341Z,3.00
2022-09-27T00:31:37.702Z,3.27
2022-09-27T00:34:05.458Z,3.20
2022-09-27T00:36:33.278Z,3.10
2022-09-27T00:39:00.956Z,3.10
2022-09-27T00:41:32.306Z,3.07
2022-09-27T00:44:01.235Z,3.20
2022-09-27T00:46:40.530Z,3.10
2022-09-27T00:49:14.070Z,2.97
2022-09-27T00:51:41.682Z,3.20
2022-09-27T00:54:10.912Z,3.03
2022-09-27T00:56:38.254Z,3.10
2022-09-27T00:59:19.618Z,2.70
2022-09-27T01:01:46.910Z,2.90
2022-09-27T01:04:16.674Z,3.20
2022-09-27T01:06:43.813Z,3.00
2022-09-27T01:09:12.208Z,2.77
2022-09-27T01:11:42.785Z,3.20
2022-09-27T01:14:15.973Z,2.73
2022-09-27T01:16:54.259Z,3.00
2022-09-27T01:19:40.265Z,2.60
2022-09-27T01:22:25.702Z,2.93
2022-09-27T01:24:52.779Z,2.43
2022-09-27T01:27:19.850Z,2.90
2022-09-27T01:29:49.981Z,2.90
2022-09-27T01:32:27.408Z,2.60
2022-09-27T01:35:01.595Z,3.00
2022-09-27T01:37:50.242Z,2.90
2022-09-27T01:40:28.419Z,2.70
2022-09-27T01:43:07.447Z,2.90
2022-09-27T01:45:39.775Z,2.70
2022-09-27T01:48:16.227Z,3.17
2022-09-27T01:50:47.120Z,2.80
2022-09-27T01:53:40.551Z,2.90
2022-09-27T01:56:10.839Z,2.80
2022-09-27T01:58:41.915Z,2.97
2022-09-27T02:01:10.683Z,2.80
2022-09-27T02:03:39.406Z,3.10
2022-09-27T02:06:12.884Z,2.90
2022-09-27T02:08:41.859Z,2.77
2022-09-27T02:11:13.522Z,2.90
2022-09-27T02:13:50.458Z,2.80
2022-09-27T02:16:22.180Z,3.40
2022-09-27T02:19:07.290Z,2.93
2022-09-27T02:21:40.300Z,2.97
2022-09-27T02:24:07.785Z,3.00
2022-09-27T02:26:39.167Z,3.13
2022-09-27T02:29:08.300Z,3.07
2022-09-27T02:31:35.447Z,2.90
2022-09-27T02:34:18.843Z,3.10
2022-09-27T02:36:45.942Z,3.10
2022-09-27T02:39:13.042Z,2.87
2022-09-27T02:41:40.167Z,2.80
2022-09-27T02:44:09.963Z,2.83
2022-09-27T02:46:46.871Z,3.10
2022-09-27T02:49:33.012Z,2.77
2022-09-27T02:52:15.467Z,3.03
2022-09-27T02:54:53.168Z,2.83
2022-09-27T02:57:23.051Z,2.70
2022-09-27T03:00:04.765Z,3.00
2022-09-27T03:02:51.980Z,2.80
2022-09-27T03:05:21.643Z,2.73
2022-09-27T03:07:49.371Z,2.70
2022-09-27T03:10:18.339Z,3.20
2022-09-27T03:12:45.436Z,2.97
2022-09-27T03:15:13.683Z,2.83
2022-09-27T03:17:40.868Z,2.83
2022-09-27T03:20:08.909Z,2.90
2022-09-27T03:22:37.747Z,2.70
2022-09-27T03:25:06.129Z,2.80
2022-09-27T03:27:33.234Z,2.87
2022-09-27T03:30:00.395Z,2.80
2022-09-27T03:32:28.337Z,2.73
2022-09-27T03:34:55.525Z,2.93
2022-09-27T03:37:23.032Z,2.60
2022-09-27T03:39:50.147Z,2.90
2022-09-27T03:42:17.265Z,3.30
2022-09-27T03:44:44.756Z,2.50
2022-09-27T03:47:11.848Z,2.57
2022-09-27T03:49:38.993Z,2.90
2022-09-27T03:52:06.117Z,2.90
2022-09-27T03:54:33.220Z,2.80
2022-09-27T03:57:00.339Z,2.80
2022-09-27T03:59:27.444Z,2.80
2022-09-27T04:01:54.668Z,2.90
2022-09-27T04:04:21.816Z,2.80
2022-09-27T04:06:49.170Z,2.80
2022-09-27T04:09:16.485Z,2.80
2022-09-27T04:11:43.749Z,2.70
2022-09-27T04:14:12.914Z,3.00
2022-09-27T04:16:43.844Z,2.70
2022-09-27T04:19:11.169Z,2.80
2022-09-27T04:21:38.384Z,2.63
2022-09-27T04:24:06.569Z,2.90
2022-09-27T04:26:33.701Z,2.97
2022-09-27T04:29:00.836Z,2.80
2022-09-27T04:31:28.027Z,2.80
2022-09-27T04:33:55.379Z,2.57
2022-09-27T04:36:26.602Z,2.70
2022-09-27T04:38:57.842Z,2.50
2022-09-27T04:41:25.542Z,2.57
2022-09-27T04:43:58.068Z,2.23
2022-09-27T04:46:26.089Z,2.20
2022-09-27T04:48:53.301Z,2.13
2022-09-27T04:51:20.999Z,2.27
2022-09-27T04:53:48.122Z,2.27
2022-09-27T04:56:15.963Z,2.20
2022-09-27T04:58:43.139Z,2.20
2022-09-27T05:01:10.875Z,2.00
2022-09-27T05:03:38.974Z,2.10
2022-09-27T05:06:06.157Z,2.00
2022-09-27T05:08:33.254Z,1.97
2022-09-27T05:11:01.289Z,2.10
2022-09-27T05:13:28.441Z,2.00
2022-09-27T05:15:55.599Z,2.10
2022-09-27T05:18:22.915Z,1.80
2022-09-27T05:20:50.158Z,2.30
2022-09-27T05:23:17.312Z,2.30
2022-09-27T05:25:44.718Z,2.17
2022-09-27T05:28:11.860Z,1.90
2022-09-27T05:30:39.099Z,2.07
2022-09-27T05:33:06.257Z,2.00
2022-09-27T05:35:33.935Z,2.10
2022-09-27T05:38:01.557Z,2.00
2022-09-27T05:40:40.964Z,1.97
2022-09-27T05:43:09.088Z,2.10
2022-09-27T05:45:36.744Z,2.20
2022-09-27T05:48:04.212Z,2.30
2022-09-27T05:50:31.651Z,2.20
2022-09-27T05:52:58.754Z,2.40
2022-09-27T05:55:25.840Z,2.40
2022-09-27T05:57:57.434Z,2.30
2022-09-27T06:00:25.945Z,2.47
2022-09-27T06:02:57.213Z,2.27
2022-09-27T06:05:25.191Z,2.50
2022-09-27T06:07:52.864Z,2.60
2022-09-27T06:10:20.954Z,2.30
2022-09-27T06:12:48.112Z,2.37
2022-09-27T06:15:15.255Z,2.60
2022-09-27T06:17:42.379Z,2.50
2022-09-27T06:20:09.844Z,2.50
2022-09-27T06:22:37.669Z,2.90
2022-09-27T06:25:05.157Z,2.70
2022-09-27T06:27:32.624Z,3.07
2022-09-27T06:30:00.042Z,2.90
2022-09-27T06:32:27.150Z,2.80
2022-09-27T06:34:54.309Z,2.60
2022-09-27T06:37:21.416Z,3.07
2022-09-27T06:39:49.246Z,2.90
2022-09-27T06:42:18.121Z,2.97
2022-09-27T06:44:50.169Z,3.00
2022-09-27T06:47:18.211Z,3.00
2022-09-27T06:49:46.212Z,2.90
2022-09-27T06:52:13.327Z,3.20
2022-09-27T06:54:40.416Z,2.90
2022-09-27T06:57:07.536Z,3.30
2022-09-27T06:59:53.123Z,3.10
2022-09-27T07:02:20.250Z,3.07
2022-09-27T07:04:47.356Z,3.07
2022-09-27T07:07:14.508Z,3.00
2022-09-27T07:09:42.280Z,3.33
2022-09-27T07:12:09.436Z,3.37
2022-09-27T07:14:36.580Z,3.20
2022-09-27T07:17:03.666Z,3.30
2022-09-27T07:19:30.776Z,2.97
2022-09-27T07:21:57.863Z,3.27
2022-09-27T07:24:24.946Z,3.30
2022-09-27T07:26:52.079Z,3.00
2022-09-27T07:29:19.381Z,3.10
2022-09-27T07:31:46.608Z,2.93
2022-09-27T07:34:13.699Z,3.20
2022-09-27T07:36:40.802Z,3.00
2022-09-27T07:39:07.980Z,2.80
2022-09-27T07:41:35.104Z,3.03
2022-09-27T07:44:02.446Z,2.80
2022-09-27T07:46:30.923Z,2.87
2022-09-27T07:48:58.765Z,2.83
2022-09-27T07:51:25.915Z,2.70
2022-09-27T07:53:53.040Z,2.60
2022-09-27T07:56:20.201Z,2.80
2022-09-27T07:58:47.707Z,2.80
2022-09-27T08:01:14.929Z,3.00
2022-09-27T08:03:42.112Z,2.90
2022-09-27T08:06:09.263Z,2.60
2022-09-27T08:08:36.514Z,2.83
2022-09-27T08:11:13.725Z,2.83
2022-09-27T08:13:40.831Z,3.03
2022-09-27T08:16:08.051Z,2.93
2022-09-27T08:18:35.444Z,2.90
2022-09-27T08:21:02.691Z,2.90
2022-09-27T08:23:29.836Z,2.73
2022-09-27T08:25:59.286Z,2.73
2022-09-27T08:28:29.762Z,2.70
2022-09-27T08:30:59.286Z,3.03
2022-09-27T08:33:32.002Z,2.90
2022-09-27T08:36:00.225Z,2.70
2022-09-27T08:38:27.335Z,2.83
2022-09-27T08:41:07.460Z,2.80
2022-09-27T08:43:37.739Z,2.90
2022-09-27T08:46:08.450Z,2.80
2022-09-27T08:48:37.788Z,2.57
2022-09-27T08:51:06.414Z,2.80
2022-09-27T08:53:36.112Z,2.70
2022-09-27T08:56:03.789Z,3.00
2022-09-27T08:58:32.847Z,3.30
2022-09-27T09:01:03.330Z,2.70
2022-09-27T09:03:32.111Z,3.00
2022-09-27T09:06:17.339Z,2.90
2022-09-27T09:09:00.706Z,3.00
2022-09-27T09:12:05.378Z,3.50
2022-09-27T09:14:51.051Z,3.27
2022-09-27T09:17:24.792Z,3.03
2022-09-27T09:20:01.301Z,3.10
2022-09-27T09:22:48.431Z,2.90
2022-09-27T09:25:34.018Z,3.00
2022-09-27T09:28:21.737Z,2.97
2022-09-27T09:31:06.208Z,3.00
2022-09-27T09:33:47.034Z,2.90
2022-09-27T09:36:26.364Z,3.10
2022-09-27T09:38:56.020Z,2.83
2022-09-27T09:41:23.132Z,3.20
2022-09-27T09:43:57.336Z,3.03
2022-09-27T09:46:29.089Z,3.10
2022-09-27T09:48:59.442Z,2.80
2022-09-27T09:51:34.464Z,2.90
2022-09-27T09:54:16.782Z,2.80
2022-09-27T09:56:49.651Z,2.90
2022-09-27T09:59:21.085Z,2.73
2022-09-27T10:01:48.689Z,2.63
2022-09-27T10:04:23.961Z,2.80
2022-09-27T10:06:52.159Z,3.50
2022-09-27T10:09:23.119Z,3.10
2022-09-27T10:11:50.376Z,2.70
2022-09-27T10:14:19.706Z,2.87
2022-09-27T10:16:48.756Z,2.70
2022-09-27T10:19:22.933Z,2.80
2022-09-27T10:21:51.695Z,2.87
2022-09-27T10:24:19.648Z,2.70
2022-09-27T10:26:51.104Z,2.70
2022-09-27T10:29:20.995Z,2.63
2022-09-27T10:31:50.294Z,2.87
2022-09-27T10:34:38.048Z,3.10
2022-09-27T10:37:17.409Z,3.20
2022-09-27T10:39:46.183Z,3.20
2022-09-27T10:42:32.293Z,3.07
2022-09-27T10:44:59.383Z,3.27
2022-09-27T10:47:27.122Z,3.10
2022-09-27T10:50:03.003Z,2.97
2022-09-27T10:52:30.147Z,3.10
2022-09-27T10:54:58.580Z,3.00
2022-09-27T10:57:27.235Z,3.00
2022-09-27T10:59:58.664Z,3.20
2022-09-27T11:02:30.318Z,3.00
2022-09-27T11:05:15.358Z,2.80
2022-09-27T11:07:53.422Z,3.10
2022-09-27T11:10:27.758Z,3.37
2022-09-27T11:13:14.400Z,3.20
2022-09-27T11:15:41.541Z,3.00
2022-09-27T11:18:25.216Z,2.73
2022-09-27T11:20:54.122Z,3.13
2022-09-27T11:23:21.253Z,2.93
2022-09-27T11:25:57.275Z,3.23
2022-09-27T11:28:42.678Z,3.10
2022-09-27T11:31:19.560Z,3.13
2022-09-27T11:33:50.331Z,2.93
2022-09-27T11:36:28.028Z,3.03
2022-09-27T11:39:07.226Z,3.27
2022-09-27T11:41:46.588Z,2.97
2022-09-27T11:44:25.793Z,2.70
2022-09-27T11:47:11.431Z,3.13
2022-09-27T11:49:41.340Z,3.20
2022-09-27T11:52:32.022Z,2.80
2022-09-27T11:55:08.944Z,2.90
2022-09-27T11:57:41.893Z,3.00
2022-09-27T12:00:13.115Z,2.90
2022-09-27T12:02:56.006Z,3.00
2022-09-27T12:05:31.438Z,2.70
2022-09-27T12:07:58.495Z,2.80
2022-09-27T12:10:25.804Z,2.80
2022-09-27T12:12:54.883Z,3.20
2022-09-27T12:15:23.730Z,3.10
2022-09-27T12:17:53.390Z,2.90
2022-09-27T12:20:30.978Z,2.97
2022-09-27T12:22:59.937Z,3.27
2022-09-27T12:25:30.266Z,2.80
2022-09-27T12:28:03.560Z,2.80
2022-09-27T12:30:32.190Z,2.83
2022-09-27T12:33:07.952Z,2.90
2022-09-27T12:35:37.102Z,2.67
2022-09-27T12:38:12.322Z,2.70
2022-09-27T12:40:41.554Z,2.33
2022-09-27T12:43:12.863Z,2.40
2022-09-27T12:45:52.054Z,2.40
2022-09-27T12:48:28.160Z,2.60
2022-09-27T12:51:08.625Z,2.53
2022-09-27T12:53:46.555Z,2.60
2022-09-27T12:56:17.136Z,2.90
2022-09-27T12:59:04.486Z,2.50
2022-09-27T13:01:35.930Z,2.50
2022-09-27T13:04:10.499Z,2.40
2022-09-27T13:06:57.320Z,2.37
2022-09-27T13:09:42.114Z,2.30
2022-09-27T13:12:14.895Z,2.30
2022-09-27T13:14:58.212Z,2.00
2022-09-27T13:17:40.950Z,2.23
2022-09-27T13:20:26.920Z,2.00
2022-09-27T13:22:54.625Z,2.27
2022-09-27T13:25:40.429Z,2.30
2022-09-27T13:28:28.172Z,2.20
2022-09-27T13:31:02.423Z,2.20
2022-09-27T13:33:29.639Z,2.20
2022-09-27T13:36:15.520Z,2.00
2022-09-27T13:38:55.571Z,2.20
2022-09-27T13:41:23.074Z,2.20
2022-09-27T13:44:03.044Z,2.10
2022-09-27T13:46:31.334Z,2.00
2022-09-27T13:49:00.193Z,2.20
2022-09-27T13:51:47.808Z,2.10
2022-09-27T13:54:33.582Z,2.10
2022-09-27T13:57:01.963Z,2.03
2022-09-27T13:59:43.455Z,2.30
2022-09-27T14:02:22.508Z,2.00
2022-09-27T14:04:53.387Z,2.20
2022-09-27T14:07:25.744Z,2.20
2022-09-27T14:09:53.967Z,1.97
2022-09-27T14:12:38.164Z,2.37
2022-09-27T14:15:05.825Z,2.10
2022-09-27T14:17:33.227Z,2.10
2022-09-27T14:20:01.357Z,2.00
2022-09-27T14:22:28.584Z,2.10
2022-09-27T14:24:56.373Z,2.23
2022-09-27T14:27:25.252Z,2.20
2022-09-27T14:29:53.955Z,2.00
2022-09-27T14:32:22.861Z,2.00
2022-09-27T14:35:31.120Z,2.10
2022-09-27T14:38:07.575Z,2.00
2022-09-27T14:40:59.146Z,2.10
2022-09-27T14:43:26.811Z,2.13
2022-09-27T14:45:54.580Z,2.20
2022-09-27T14:48:28.418Z,1.90
2022-09-27T14:51:04.968Z,2.00
2022-09-27T14:53:37.224Z,2.10
2022-09-27T14:56:07.166Z,2.20
2022-09-27T14:58:47.223Z,1.97
2022-09-27T15:01:20.178Z,2.10
2022-09-27T15:03:52.676Z,2.20
2022-09-27T15:06:20.323Z,2.30
2022-09-27T15:08:49.605Z,2.27
2022-09-27T15:11:19.148Z,2.33
2022-09-27T15:13:47.241Z,2.00
2022-09-27T15:16:18.959Z,2.27
2022-09-27T15:18:47.205Z,2.40
2022-09-27T15:21:34.210Z,2.10
2022-09-27T15:24:02.796Z,2.00
2022-09-27T15:26:38.240Z,2.13
2022-09-27T15:29:05.700Z,2.20
2022-09-27T15:31:36.722Z,2.13
2022-09-27T15:34:07.561Z,2.10
2022-09-27T15:36:51.834Z,2.10
2022-09-27T15:39:27.535Z,2.27
2022-09-27T15:42:06.909Z,2.23
2022-09-27T15:44:45.320Z,2.40
2022-09-27T15:47:34.567Z,2.10
2022-09-27T15:50:34.316Z,2.20
2022-09-27T15:53:02.896Z,2.20
2022-09-27T15:55:30.308Z,2.40
2022-09-27T15:57:59.285Z,2.40
2022-09-27T16:00:27.392Z,2.40
2022-09-27T16:02:54.712Z,2.40
2022-09-27T16:05:23.838Z,2.27
2022-09-27T16:07:51.610Z,2.30
2022-09-27T16:10:19.973Z,2.50
2022-09-27T16:12:47.125Z,2.30
2022-09-27T16:15:15.125Z,3.30
2022-09-27T16:17:45.384Z,2.40
2022-09-27T16:20:24.978Z,2.40
2022-09-27T16:22:52.667Z,2.50
2022-09-27T16:25:20.048Z,2.50
2022-09-27T16:27:47.207Z,2.70
2022-09-27T16:30:14.935Z,2.40
2022-09-27T16:32:42.837Z,2.40
2022-09-27T16:35:10.821Z,2.70
2022-09-27T16:37:38.205Z,2.50
2022-09-27T16:40:06.460Z,2.50
2022-09-27T16:42:33.719Z,2.70
2022-09-27T16:45:04.840Z,2.70
2022-09-27T16:47:35.500Z,2.67
2022-09-27T16:50:21.827Z,2.60
2022-09-27T16:52:50.061Z,2.67
2022-09-27T16:55:20.609Z,2.63
2022-09-27T16:57:48.118Z,2.50
2022-09-27T17:00:15.530Z,2.30
2022-09-27T17:02:47.037Z,2.50
2022-09-27T17:05:14.883Z,2.67
2022-09-27T17:07:42.480Z,2.60
2022-09-27T17:10:09.728Z,2.60
2022-09-27T17:12:36.903Z,2.43
2022-09-27T17:15:04.551Z,2.53
2022-09-27T17:17:31.630Z,2.60
2022-09-27T17:19:58.891Z,2.53
2022-09-27T17:22:25.989Z,2.60
2022-09-27T17:24:53.139Z,2.70
2022-09-27T17:27:25.186Z,2.43
2022-09-27T17:29:52.935Z,2.70
2022-09-27T17:32:22.345Z,2.43
2022-09-27T17:34:49.423Z,2.50
2022-09-27T17:37:16.907Z,2.80
2022-09-27T17:39:44.212Z,2.60
2022-09-27T17:42:12.555Z,2.67
2022-09-27T17:44:39.688Z,2.40
2022-09-27T17:47:25.278Z,2.47
2022-09-27T17:50:11.255Z,2.70
2022-09-27T17:52:38.371Z,2.70
2022-09-27T17:55:05.757Z,2.67
2022-09-27T17:57:32.913Z,2.80
2022-09-27T17:59:59.987Z,2.67
2022-09-27T18:02:27.770Z,2.70
2022-09-27T18:04:54.968Z,2.60
2022-09-27T18:07:22.177Z,2.77
2022-09-27T18:09:51.014Z,2.70
2022-09-27T18:12:18.514Z,2.80
2022-09-27T18:14:45.806Z,3.13
2022-09-27T18:17:13.415Z,2.80
2022-09-27T18:19:40.708Z,2.80
2022-09-27T18:22:07.788Z,3.00
2022-09-27T18:24:34.924Z,3.30
2022-09-27T18:27:03.351Z,3.10
2022-09-27T18:29:30.424Z,2.90
2022-09-27T18:31:57.653Z,3.07
2022-09-27T18:34:27.809Z,2.93
2022-09-27T18:36:54.894Z,3.40
2022-09-27T18:39:22.231Z,3.00
2022-09-27T18:41:49.565Z,3.37
2022-09-27T18:44:17.271Z,3.13
2022-09-27T18:46:44.929Z,3.30
2022-09-27T18:49:13.308Z,3.43
2022-09-27T18:51:43.700Z,3.03
2022-09-27T18:54:18.239Z,3.30
2022-09-27T18:56:45.962Z,3.13
2022-09-27T18:59:13.374Z,3.17
2022-09-27T19:01:44.819Z,3.13
2022-09-27T19:04:13.504Z,3.57
2022-09-27T19:06:40.724Z,3.23
2022-09-27T19:09:08.379Z,3.40
2022-09-27T19:11:35.983Z,3.50
2022-09-27T19:14:03.507Z,3.20
2022-09-27T19:16:31.085Z,3.33
2022-09-27T19:18:58.352Z,3.07
2022-09-27T19:21:26.877Z,3.10
2022-09-27T19:23:54.121Z,3.23
2022-09-27T19:26:22.769Z,3.10
2022-09-27T19:28:50.253Z,3.20
2022-09-27T19:31:18.721Z,3.23
2022-09-27T19:33:46.092Z,3.13
2022-09-27T19:36:13.962Z,3.27
2022-09-27T19:38:41.291Z,2.97
2022-09-27T19:41:10.503Z,3.30
2022-09-27T19:43:37.759Z,3.17
2022-09-27T19:46:12.744Z,3.50
2022-09-27T19:48:39.899Z,3.20
2022-09-27T19:51:07.330Z,3.00
2022-09-27T19:53:35.176Z,2.67
2022-09-27T19:56:03.447Z,2.97
2022-09-27T19:58:31.348Z,3.00
2022-09-27T20:00:59.648Z,3.30
2022-09-27T20:03:26.851Z,3.20
2022-09-27T20:05:54.891Z,3.30
2022-09-27T20:08:22.037Z,3.10
2022-09-27T20:10:56.108Z,3.50
2022-09-27T20:13:24.117Z,3.17
2022-09-27T20:15:51.610Z,3.50
2022-09-27T20:18:18.711Z,3.20
2022-09-27T20:20:45.854Z,3.17
2022-09-27T20:23:13.203Z,3.23
2022-09-27T20:25:43.093Z,3.30
2022-09-27T20:28:10.361Z,3.37
2022-09-27T20:30:37.446Z,3.23
2022-09-27T20:33:23.108Z,3.30
2022-09-27T20:35:53.991Z,3.10
2022-09-27T20:38:21.169Z,3.90
2022-09-27T20:40:54.879Z,3.30
2022-09-27T20:43:22.223Z,3.43
2022-09-27T20:45:49.325Z,3.47
2022-09-27T20:48:16.488Z,3.80
2022-09-27T20:50:43.595Z,3.90
2022-09-27T20:53:10.811Z,3.87
2022-09-27T20:55:38.050Z,3.63
2022-09-27T20:58:05.151Z,4.10
2022-09-27T21:00:32.348Z,4.10
2022-09-27T21:02:59.638Z,4.30
2022-09-27T21:05:26.736Z,4.27
2022-09-27T21:07:55.073Z,4.40
2022-09-27T21:10:22.448Z,4.90
2022-09-27T21:12:49.714Z,4.50
2022-09-27T21:15:16.908Z,4.50
2022-09-27T21:17:44.023Z,4.97
2022-09-27T21:20:11.233Z,4.90
2022-09-27T21:22:38.342Z,5.40
2022-09-27T21:25:05.631Z,4.93
2022-09-27T21:27:32.727Z,5.23
2022-09-27T21:30:01.155Z,5.13
2022-09-27T21:32:28.252Z,5.13
2022-09-27T21:34:55.709Z,5.27
2022-09-27T21:37:23.199Z,5.70
2022-09-27T21:39:50.270Z,5.07
2022-09-27T21:42:17.466Z,5.63
2022-09-27T21:44:44.674Z,5.40
2022-09-27T21:47:13.119Z,5.10
2022-09-27T21:49:40.207Z,5.50
2022-09-27T21:52:07.284Z,5.77
2022-09-27T21:54:34.436Z,5.80
2022-09-27T21:57:02.430Z,5.47
2022-09-27T21:59:29.524Z,5.83
2022-09-27T22:01:56.649Z,6.03
2022-09-27T22:04:23.864Z,5.77
2022-09-27T22:06:52.949Z,5.80
2022-09-27T22:09:20.038Z,5.93
2022-09-27T22:11:47.757Z,6.07
2022-09-27T22:14:16.234Z,5.80
2022-09-27T22:16:43.439Z,5.97
2022-09-27T22:19:11.963Z,5.90
2022-09-27T22:21:39.499Z,6.53
2022-09-27T22:24:09.222Z,6.27
2022-09-27T22:26:38.347Z,6.80
2022-09-27T22:29:05.875Z,6.10
2022-09-27T22:31:33.048Z,6.43
2022-09-27T22:34:05.130Z,6.60
2022-09-27T22:36:33.378Z,7.17
2022-09-27T22:39:00.979Z,7.10
2022-09-27T22:41:30.407Z,6.70
2022-09-27T22:43:58.078Z,7.43
2022-09-27T22:46:25.627Z,7.03
2022-09-27T22:48:52.880Z,6.30
2022-09-27T22:51:20.149Z,7.33
2022-09-27T22:53:47.223Z,6.83
2022-09-27T22:56:15.829Z,7.30
2022-09-27T22:58:43.976Z,7.10
2022-09-27T23:01:12.195Z,7.10
2022-09-27T23:03:39.520Z,7.00
2022-09-27T23:06:07.413Z,6.87
2022-09-27T23:08:37.972Z,6.80
2022-09-27T23:11:09.479Z,6.83
2022-09-27T23:13:37.819Z,6.77
2022-09-27T23:16:05.968Z,7.23
2022-09-27T23:18:33.240Z,7.30
2022-09-27T23:21:03.390Z,7.27
2022-09-27T23:23:38.207Z,6.80
2022-09-27T23:26:06.928Z,6.80
2022-09-27T23:28:35.094Z,7.00
2022-09-27T23:31:09.239Z,6.83
2022-09-27T23:33:37.314Z,6.53
2022-09-27T23:36:04.858Z,7.07
2022-09-27T23:38:32.460Z,7.10
2022-09-27T23:41:00.149Z,7.07
2022-09-27T23:43:27.733Z,6.97
2022-09-27T23:45:57.078Z,7.20
2022-09-27T23:48:27.716Z,7.30
2022-09-27T23:50:55.023Z,7.30
2022-09-27T23:53:22.447Z,7.03
2022-09-27T23:55:59.588Z,6.83
2022-09-27T23:58:26.648Z,7.00
